createdAt,value
2018-04-07T00:01:33.486Z,3.60
2018-04-07T00:04:01.053Z,4.00
2018-04-07T00:06:28.559Z,4.20
2018-04-07T00:08:56.057Z,3.60
2018-04-07T00:11:23.541Z,3.73
2018-04-07T00:13:51.036Z,4.17
2018-04-07T00:16:18.578Z,3.93
2018-04-07T00:18:46.084Z,4.13
2018-04-07T00:21:13.604Z,3.73
2018-04-07T00:23:41.159Z,4.17
2018-04-07T00:26:08.661Z,4.63
2018-04-07T00:28:36.200Z,4.60
2018-04-07T00:31:03.696Z,4.27
2018-04-07T00:33:31.299Z,4.57
2018-04-07T00:35:58.822Z,4.10
2018-04-07T00:38:26.329Z,4.53
2018-04-07T00:40:53.853Z,4.60
2018-04-07T00:43:21.341Z,4.43
2018-04-07T00:45:48.832Z,4.20
2018-04-07T00:48:16.365Z,4.80
2018-04-07T00:50:43.853Z,4.10
2018-04-07T00:53:11.363Z,3.93
2018-04-07T00:55:38.862Z,4.57
2018-04-07T00:58:06.356Z,4.20
2018-04-07T01:00:33.845Z,4.27
2018-04-07T01:03:01.345Z,4.47
2018-04-07T01:05:28.846Z,4.70
2018-04-07T01:07:56.359Z,4.13
2018-04-07T01:10:23.836Z,4.33
2018-04-07T01:12:51.338Z,4.73
2018-04-07T01:15:18.852Z,5.20
2018-04-07T01:17:46.362Z,5.27
2018-04-07T01:20:13.859Z,4.60
2018-04-07T01:22:41.348Z,4.63
2018-04-07T01:25:08.837Z,4.80
2018-04-07T01:27:36.366Z,4.47
2018-04-07T01:30:03.852Z,4.73
2018-04-07T01:32:31.336Z,4.37
2018-04-07T01:34:58.846Z,4.87
2018-04-07T01:37:26.372Z,4.30
2018-04-07T01:39:53.872Z,4.70
2018-04-07T01:42:21.360Z,4.57
2018-04-07T01:44:48.851Z,4.80
2018-04-07T01:47:16.347Z,4.47
2018-04-07T01:49:43.850Z,4.27
2018-04-07T01:52:11.336Z,4.93
2018-04-07T01:54:38.820Z,4.83
2018-04-07T01:57:06.313Z,4.53
2018-04-07T01:59:33.794Z,4.67
2018-04-07T02:02:01.280Z,4.77
2018-04-07T02:04:28.776Z,4.97
2018-04-07T02:06:56.281Z,4.70
2018-04-07T02:09:23.788Z,4.87
2018-04-07T02:11:51.303Z,5.10
2018-04-07T02:14:18.819Z,4.87
2018-04-07T02:16:46.332Z,4.33
2018-04-07T02:19:13.852Z,4.60
2018-04-07T02:21:41.328Z,4.57
2018-04-07T02:24:08.844Z,5.40
2018-04-07T02:26:36.339Z,6.13
2018-04-07T02:29:03.838Z,5.23
2018-04-07T02:31:31.695Z,4.53
2018-04-07T02:33:59.183Z,5.17
2018-04-07T02:36:26.710Z,5.20
2018-04-07T02:38:54.217Z,4.70
2018-04-07T02:41:21.713Z,4.87
2018-04-07T02:43:49.250Z,5.60
2018-04-07T02:46:16.770Z,4.17
2018-04-07T02:48:44.279Z,4.87
2018-04-07T02:51:11.784Z,4.73
2018-04-07T02:53:39.275Z,5.60
2018-04-07T02:56:06.792Z,5.63
2018-04-07T02:58:34.284Z,4.57
2018-04-07T03:01:01.779Z,5.67
2018-04-07T03:03:29.307Z,5.47
2018-04-07T03:05:56.812Z,5.27
2018-04-07T03:08:24.318Z,5.30
2018-04-07T03:10:51.860Z,5.10
2018-04-07T03:13:19.345Z,4.83
2018-04-07T03:15:46.827Z,4.83
2018-04-07T03:18:15.411Z,6.27
2018-04-07T03:20:42.947Z,5.30
2018-04-07T03:23:10.508Z,5.53
2018-04-07T03:25:38.085Z,5.47
2018-04-07T03:28:05.584Z,5.30
2018-04-07T03:30:33.107Z,5.40
2018-04-07T03:33:00.616Z,5.53
2018-04-07T03:35:28.136Z,5.50
2018-04-07T03:37:55.645Z,5.10
2018-04-07T03:40:23.151Z,5.27
2018-04-07T03:42:50.652Z,5.13
2018-04-07T03:45:18.220Z,4.93
2018-04-07T03:47:45.712Z,5.37
2018-04-07T03:50:13.230Z,5.27
2018-04-07T03:52:40.745Z,5.30
2018-04-07T03:55:08.251Z,5.47
2018-04-07T03:57:35.763Z,5.93
2018-04-07T04:00:03.263Z,5.53
2018-04-07T04:02:30.759Z,5.70
2018-04-07T04:04:58.256Z,5.50
2018-04-07T04:07:25.738Z,5.60
2018-04-07T04:09:53.228Z,5.63
2018-04-07T04:12:20.724Z,6.03
2018-04-07T04:14:48.254Z,5.53
2018-04-07T04:17:15.741Z,5.50
2018-04-07T04:19:43.240Z,5.83
2018-04-07T04:22:10.752Z,5.50
2018-04-07T04:24:38.262Z,5.83
2018-04-07T04:27:05.822Z,5.40
2018-04-07T04:29:33.357Z,5.10
2018-04-07T04:32:00.887Z,5.70
2018-04-07T04:34:28.397Z,4.87
2018-04-07T04:36:55.991Z,5.07
2018-04-07T04:39:23.511Z,5.77
2018-04-07T04:41:51.050Z,6.13
2018-04-07T04:44:18.558Z,6.30
2018-04-07T04:46:46.085Z,5.67
2018-04-07T04:49:13.721Z,5.20
2018-04-07T04:51:41.231Z,5.57
2018-04-07T04:54:08.731Z,5.60
2018-04-07T04:56:36.239Z,5.67
2018-04-07T04:59:03.743Z,6.03
2018-04-07T05:01:31.258Z,5.40
2018-04-07T05:03:58.817Z,5.70
2018-04-07T05:06:26.396Z,5.43
2018-04-07T05:08:53.900Z,6.13
2018-04-07T05:11:21.400Z,5.53
2018-04-07T05:13:48.893Z,5.60
2018-04-07T05:16:16.424Z,5.60
2018-04-07T05:18:43.929Z,5.20
2018-04-07T05:21:11.473Z,5.33
2018-04-07T05:23:39.014Z,5.90
2018-04-07T05:26:06.562Z,5.87
2018-04-07T05:28:34.047Z,6.33
2018-04-07T05:31:01.533Z,6.10
2018-04-07T05:33:29.033Z,5.77
2018-04-07T05:35:56.564Z,5.10
2018-04-07T05:38:24.054Z,5.53
2018-04-07T05:40:51.532Z,5.00
2018-04-07T05:43:19.034Z,6.20
2018-04-07T05:45:46.525Z,5.20
2018-04-07T05:48:14.028Z,6.37
2018-04-07T05:50:41.578Z,5.33
2018-04-07T05:53:09.287Z,6.17
2018-04-07T05:55:42.230Z,6.67
2018-04-07T05:58:09.719Z,5.40
2018-04-07T06:00:37.229Z,6.10
2018-04-07T06:03:05.642Z,5.83
2018-04-07T06:05:33.243Z,6.33
2018-04-07T06:08:00.902Z,5.80
2018-04-07T06:10:28.534Z,5.87
2018-04-07T06:12:56.040Z,6.53
2018-04-07T06:15:23.542Z,5.73
2018-04-07T06:17:51.038Z,6.00
2018-04-07T06:20:18.539Z,6.77
2018-04-07T06:22:46.035Z,5.77
2018-04-07T06:25:13.534Z,5.90
2018-04-07T06:27:41.021Z,5.27
2018-04-07T06:30:08.597Z,6.27
2018-04-07T06:32:36.082Z,5.23
2018-04-07T06:35:03.585Z,5.93
2018-04-07T06:37:31.062Z,5.67
2018-04-07T06:39:58.560Z,5.53
2018-04-07T06:42:26.174Z,5.90
2018-04-07T06:44:53.671Z,6.27
2018-04-07T06:47:21.197Z,5.70
2018-04-07T06:49:48.699Z,6.33
2018-04-07T06:52:16.201Z,5.57
2018-04-07T06:54:43.762Z,6.03
2018-04-07T06:57:11.286Z,6.20
2018-04-07T06:59:38.808Z,6.13
2018-04-07T07:02:06.302Z,5.80
2018-04-07T07:04:33.880Z,6.07
2018-04-07T07:07:01.368Z,6.67
2018-04-07T07:09:29.129Z,6.43
2018-04-07T07:11:56.648Z,5.90
2018-04-07T07:14:25.044Z,5.63
2018-04-07T07:16:52.613Z,5.80
2018-04-07T07:19:20.127Z,6.60
2018-04-07T07:21:47.689Z,5.77
2018-04-07T07:24:15.227Z,6.03
2018-04-07T07:26:42.766Z,5.93
2018-04-07T07:29:10.326Z,5.90
2018-04-07T07:31:37.835Z,5.83
2018-04-07T07:34:06.399Z,6.83
2018-04-07T07:36:35.407Z,6.10
2018-04-07T07:39:04.460Z,6.30
2018-04-07T07:41:32.588Z,6.27
2018-04-07T07:44:01.274Z,7.13
2018-04-07T07:46:29.161Z,6.20
2018-04-07T07:48:57.720Z,6.57
2018-04-07T07:51:42.735Z,6.80
2018-04-07T07:54:10.516Z,5.87
2018-04-07T07:56:38.779Z,7.20
2018-04-07T07:59:06.315Z,6.27
2018-04-07T08:04:26.794Z,6.87
2018-04-07T08:07:14.195Z,6.87
2018-04-07T08:09:41.725Z,7.23
2018-04-07T08:12:09.225Z,6.60
2018-04-07T08:14:39.297Z,6.20
2018-04-07T08:17:08.043Z,6.50
2018-04-07T08:19:35.684Z,6.47
2018-04-07T08:22:03.190Z,6.67
2018-04-07T08:24:30.738Z,6.70
2018-04-07T08:26:58.224Z,7.40
2018-04-07T08:29:25.758Z,6.37
2018-04-07T08:31:53.257Z,7.83
2018-04-07T08:34:20.736Z,6.80
2018-04-07T08:36:48.809Z,7.23
2018-04-07T08:39:16.298Z,7.93
2018-04-07T08:41:43.809Z,7.60
2018-04-07T08:44:11.359Z,7.30
2018-04-07T08:46:38.924Z,7.93
2018-04-07T08:49:06.500Z,7.93
2018-04-07T08:51:34.006Z,7.00
2018-04-07T08:54:01.555Z,7.87
2018-04-07T08:56:29.072Z,7.77
2018-04-07T08:58:56.590Z,8.20
2018-04-07T09:01:24.098Z,8.03
2018-04-07T09:03:51.617Z,8.77
2018-04-07T09:06:19.997Z,8.53
2018-04-07T09:08:47.493Z,8.47
2018-04-07T09:11:14.990Z,8.80
2018-04-07T09:13:42.490Z,7.90
2018-04-07T09:16:10.596Z,7.87
2018-04-07T09:18:38.120Z,7.40
2018-04-07T09:21:05.609Z,8.10
2018-04-07T09:23:33.108Z,7.67
2018-04-07T09:26:00.613Z,8.17
2018-04-07T09:28:28.082Z,8.20
2018-04-07T09:31:01.008Z,9.20
2018-04-07T09:33:28.471Z,8.30
2018-04-07T09:35:55.973Z,8.17
2018-04-07T09:38:23.677Z,7.70
2018-04-07T09:40:51.218Z,8.30
2018-04-07T09:43:18.716Z,9.67
2018-04-07T09:45:46.202Z,8.80
2018-04-07T09:48:13.698Z,8.10
2018-04-07T09:50:41.215Z,9.30
2018-04-07T09:53:08.723Z,9.47
2018-04-07T09:55:36.205Z,9.20
2018-04-07T09:58:03.824Z,8.97
2018-04-07T10:00:31.298Z,9.47
2018-04-07T10:03:01.923Z,8.47
2018-04-07T10:05:29.416Z,9.13
2018-04-07T10:07:57.618Z,8.77
2018-04-07T10:10:25.124Z,8.17
2018-04-07T10:12:52.631Z,8.43
2018-04-07T10:15:20.120Z,9.33
2018-04-07T10:17:47.606Z,9.47
2018-04-07T10:20:15.071Z,9.93
2018-04-07T10:22:42.589Z,10.13
2018-04-07T10:25:10.087Z,9.73
2018-04-07T10:27:37.597Z,9.33
2018-04-07T10:30:05.099Z,8.73
2018-04-07T10:32:32.589Z,9.83
2018-04-07T10:35:00.088Z,9.43
2018-04-07T10:37:27.590Z,9.77
2018-04-07T10:39:55.074Z,9.33
2018-04-07T10:42:22.580Z,9.20
2018-04-07T10:44:50.085Z,9.37
2018-04-07T10:47:17.615Z,9.07
2018-04-07T10:49:45.078Z,10.23
2018-04-07T10:52:12.638Z,9.20
2018-04-07T10:54:40.133Z,10.27
2018-04-07T10:57:07.626Z,10.63
2018-04-07T10:59:35.124Z,9.67
2018-04-07T11:02:02.688Z,9.77
2018-04-07T11:04:31.026Z,10.70
2018-04-07T11:06:58.517Z,9.43
2018-04-07T11:09:25.997Z,10.27
2018-04-07T11:11:53.496Z,9.27
2018-04-07T11:14:21.661Z,10.07
2018-04-07T11:16:49.146Z,9.57
2018-04-07T11:19:16.647Z,10.07
2018-04-07T11:21:44.138Z,10.23
2018-04-07T11:24:11.628Z,9.73
2018-04-07T11:26:39.126Z,8.93
2018-04-07T11:29:06.661Z,9.77
2018-04-07T11:31:34.180Z,9.80
2018-04-07T11:34:01.700Z,10.40
2018-04-07T11:36:29.198Z,10.63
2018-04-07T11:38:56.693Z,10.27
2018-04-07T11:41:24.248Z,9.60
2018-04-07T11:43:51.803Z,10.10
2018-04-07T11:46:19.280Z,10.90
2018-04-07T11:48:46.828Z,9.53
2018-04-07T11:51:14.361Z,10.10
2018-04-07T11:53:43.050Z,9.60
2018-04-07T11:56:10.545Z,11.13
2018-04-07T11:58:38.044Z,10.00
2018-04-07T12:01:05.561Z,10.53
2018-04-07T12:03:33.083Z,10.23
2018-04-07T12:06:00.633Z,10.07
2018-04-07T12:08:28.208Z,10.80
2018-04-07T12:10:55.706Z,10.17
2018-04-07T12:13:23.221Z,10.90
2018-04-07T12:15:51.273Z,10.57
2018-04-07T12:18:18.875Z,11.40
2018-04-07T12:20:46.444Z,10.30
2018-04-07T12:23:13.966Z,10.97
2018-04-07T12:25:41.437Z,10.57
2018-04-07T12:28:08.914Z,9.93
2018-04-07T12:30:36.425Z,10.23
2018-04-07T12:33:03.938Z,10.10
2018-04-07T12:35:31.440Z,10.50
2018-04-07T12:37:58.957Z,10.13
2018-04-07T12:40:26.464Z,9.97
2018-04-07T12:42:53.954Z,9.23
2018-04-07T12:45:21.480Z,10.00
2018-04-07T12:47:49.057Z,9.37
2018-04-07T12:50:16.551Z,9.57
2018-04-07T12:52:44.262Z,9.30
2018-04-07T12:55:11.750Z,9.03
2018-04-07T12:57:39.277Z,10.03
2018-04-07T13:00:06.739Z,9.37
2018-04-07T13:02:34.237Z,8.63
2018-04-07T13:05:01.725Z,8.63
2018-04-07T13:07:29.223Z,9.63
2018-04-07T13:09:56.736Z,9.73
2018-04-07T13:12:24.218Z,9.03
2018-04-07T13:14:51.690Z,9.03
2018-04-07T13:17:19.192Z,9.00
2018-04-07T13:19:46.686Z,9.40
2018-04-07T13:22:14.194Z,8.67
2018-04-07T13:24:41.685Z,8.77
2018-04-07T13:27:09.170Z,9.20
2018-04-07T13:29:36.709Z,8.50
2018-04-07T13:32:05.127Z,8.77
2018-04-07T13:34:32.624Z,8.67
2018-04-07T13:37:00.421Z,9.33
2018-04-07T13:39:27.912Z,9.33
2018-04-07T13:41:55.394Z,9.30
2018-04-07T13:44:23.774Z,8.80
2018-04-07T13:46:51.267Z,9.07
2018-04-07T13:49:18.743Z,8.77
2018-04-07T13:51:46.252Z,9.57
2018-04-07T13:54:13.794Z,9.43
2018-04-07T13:56:41.299Z,9.27
2018-04-07T13:59:08.778Z,9.20
2018-04-07T14:01:36.285Z,9.60
2018-04-07T14:04:03.797Z,9.07
2018-04-07T14:06:31.742Z,8.87
2018-04-07T14:08:59.248Z,9.37
2018-04-07T14:11:26.864Z,9.27
2018-04-07T14:13:54.371Z,9.07
2018-04-07T14:16:21.834Z,9.23
2018-04-07T14:18:49.342Z,8.57
2018-04-07T14:21:16.831Z,9.67
2018-04-07T14:23:44.306Z,8.90
2018-04-07T14:26:12.800Z,9.17
2018-04-07T14:28:40.302Z,8.80
2018-04-07T14:31:07.838Z,9.70
2018-04-07T14:33:35.355Z,8.83
2018-04-07T14:36:02.897Z,8.70
2018-04-07T14:38:30.382Z,9.03
2018-04-07T14:40:57.882Z,9.30
2018-04-07T14:43:25.389Z,8.80
2018-04-07T14:45:52.890Z,8.53
2018-04-07T14:48:20.394Z,8.40
2018-04-07T14:50:47.875Z,8.73
2018-04-07T14:53:15.394Z,9.30
2018-04-07T14:55:42.873Z,9.00
2018-04-07T14:58:10.370Z,8.90
2018-04-07T15:00:37.856Z,8.73
2018-04-07T15:03:05.357Z,8.80
2018-04-07T15:05:32.877Z,9.00
2018-04-07T15:08:00.374Z,9.67
2018-04-07T15:10:27.871Z,9.07
2018-04-07T15:12:55.333Z,9.63
2018-04-07T15:15:22.809Z,9.53
2018-04-07T15:17:50.303Z,8.93
2018-04-07T15:20:17.815Z,9.77
2018-04-07T15:22:45.347Z,9.00
2018-04-07T15:25:12.877Z,8.70
2018-04-07T15:27:40.392Z,10.20
2018-04-07T15:30:07.914Z,10.00
2018-04-07T15:32:35.416Z,9.33
2018-04-07T15:35:02.890Z,10.27
2018-04-07T15:37:30.392Z,9.23
2018-04-07T15:39:57.895Z,9.00
2018-04-07T15:42:25.373Z,9.70
2018-04-07T15:44:52.850Z,10.20
2018-04-07T15:47:20.375Z,9.57
2018-04-07T15:49:47.896Z,9.57
2018-04-07T15:52:15.374Z,9.27
2018-04-07T15:54:42.901Z,10.30
2018-04-07T15:57:10.404Z,10.60
2018-04-07T15:59:37.897Z,11.47
2018-04-07T16:02:05.407Z,10.50
2018-04-07T16:04:32.913Z,10.37
2018-04-07T16:07:00.412Z,10.77
2018-04-07T16:09:27.909Z,12.17
2018-04-07T16:11:55.413Z,11.27
2018-04-07T16:14:22.882Z,11.23
2018-04-07T16:16:50.379Z,11.93
2018-04-07T16:19:17.897Z,12.53
2018-04-07T16:21:45.426Z,11.33
2018-04-07T16:24:12.975Z,11.77
2018-04-07T16:26:40.466Z,11.23
2018-04-07T16:29:07.969Z,10.87
2018-04-07T16:31:54.875Z,11.47
2018-04-07T16:37:27.948Z,11.10
2018-04-07T16:39:56.681Z,11.43
2018-04-07T16:42:24.216Z,11.07
2018-04-07T16:44:51.738Z,11.07
2018-04-07T16:47:19.265Z,11.13
2018-04-07T16:49:46.804Z,11.53
2018-04-07T16:52:14.551Z,12.00
2018-04-07T16:54:42.132Z,10.63
2018-04-07T16:57:09.630Z,10.57
2018-04-07T16:59:37.153Z,11.23
2018-04-07T17:02:04.642Z,11.03
2018-04-07T17:04:32.154Z,10.90
2018-04-07T17:06:59.652Z,10.93
2018-04-07T17:09:27.152Z,11.10
2018-04-07T17:11:54.640Z,10.87
2018-04-07T17:14:22.144Z,11.30
2018-04-07T17:16:49.650Z,10.60
2018-04-07T17:19:17.230Z,10.87
2018-04-07T17:21:44.764Z,11.17
2018-04-07T17:24:12.288Z,10.50
2018-04-07T17:26:39.835Z,10.53
2018-04-07T17:29:08.054Z,10.67
2018-04-07T17:31:35.879Z,10.37
2018-04-07T17:34:03.477Z,9.60
2018-04-07T17:36:31.175Z,10.43
2018-04-07T17:38:58.743Z,10.17
2018-04-07T17:41:27.677Z,10.27
2018-04-07T17:43:55.232Z,9.73
2018-04-07T17:46:22.828Z,10.20
2018-04-07T17:48:50.333Z,10.10
2018-04-07T17:51:18.114Z,10.97
2018-04-07T17:53:45.844Z,9.40
2018-04-07T17:56:13.405Z,9.97
2018-04-07T17:59:01.412Z,10.13
2018-04-07T18:01:28.941Z,10.70
2018-04-07T18:03:56.437Z,9.10
2018-04-07T18:06:23.955Z,10.37
2018-04-07T18:08:51.489Z,9.73
2018-04-07T18:11:18.979Z,10.37
2018-04-07T18:13:46.494Z,9.63
2018-04-07T18:16:13.995Z,10.43
2018-04-07T18:18:41.493Z,9.73
2018-04-07T18:21:08.982Z,9.83
2018-04-07T18:23:36.517Z,8.90
2018-04-07T18:26:04.008Z,8.87
2018-04-07T18:28:31.543Z,9.70
2018-04-07T18:30:59.026Z,9.77
2018-04-07T18:33:26.511Z,9.70
2018-04-07T18:35:54.037Z,10.37
2018-04-07T18:38:21.557Z,9.70
2018-04-07T18:40:49.086Z,10.20
2018-04-07T18:43:16.629Z,10.00
2018-04-07T18:45:44.167Z,9.43
2018-04-07T18:48:11.661Z,10.33
2018-04-07T18:50:39.142Z,10.47
2018-04-07T18:53:06.705Z,9.50
2018-04-07T18:55:34.184Z,9.77
2018-04-07T18:58:01.687Z,10.33
2018-04-07T19:00:29.173Z,9.47
2018-04-07T19:02:56.691Z,9.30
2018-04-07T19:05:24.172Z,9.07
2018-04-07T19:07:51.662Z,10.60
2018-04-07T19:10:19.159Z,9.87
2018-04-07T19:12:46.689Z,9.90
2018-04-07T19:15:14.178Z,10.07
2018-04-07T19:17:42.262Z,10.07
2018-04-07T19:20:09.774Z,10.23
2018-04-07T19:22:37.291Z,10.17
2018-04-07T19:25:04.805Z,10.27
2018-04-07T19:27:32.305Z,10.30
2018-04-07T19:29:59.797Z,11.43
2018-04-07T19:32:27.294Z,12.47
2018-04-07T19:34:54.832Z,12.47
2018-04-07T19:37:22.386Z,13.40
2018-04-07T19:39:50.089Z,16.40
2018-04-07T19:42:17.610Z,19.37
2018-04-07T19:44:45.115Z,21.93
2018-04-07T19:47:12.660Z,23.27
2018-04-07T19:49:40.164Z,21.67
2018-04-07T19:52:07.645Z,20.67
2018-04-07T19:54:35.205Z,19.93
2018-04-07T19:57:03.073Z,19.57
2018-04-07T19:59:30.621Z,18.10
2018-04-07T20:01:58.144Z,18.73
2018-04-07T20:04:25.922Z,17.63
2018-04-07T20:06:53.511Z,17.47
2018-04-07T20:09:21.023Z,16.67
2018-04-07T20:11:48.932Z,16.53
2018-04-07T20:14:22.464Z,17.63
2018-04-07T20:16:50.033Z,18.43
2018-04-07T20:19:17.583Z,17.07
2018-04-07T20:21:45.098Z,19.17
2018-04-07T20:24:13.501Z,19.10
2018-04-07T20:26:40.994Z,19.40
2018-04-07T20:29:08.503Z,19.83
2018-04-07T20:31:36.080Z,19.83
2018-04-07T20:34:03.694Z,19.57
2018-04-07T20:36:31.455Z,19.73
2018-04-07T20:38:58.966Z,20.03
2018-04-07T20:41:26.459Z,20.37
2018-04-07T20:43:54.871Z,21.30
2018-04-07T20:46:22.368Z,20.93
2018-04-07T20:48:49.863Z,20.77
2018-04-07T20:51:17.389Z,20.40
2018-04-07T20:53:44.916Z,20.70
2018-04-07T20:56:12.599Z,19.17
2018-04-07T20:58:40.177Z,19.60
2018-04-07T21:01:07.727Z,18.90
2018-04-07T21:03:35.268Z,18.93
2018-04-07T21:06:03.022Z,18.60
2018-04-07T21:08:30.570Z,18.97
2018-04-07T21:10:58.073Z,19.00
2018-04-07T21:13:25.580Z,19.63
2018-04-07T21:15:53.083Z,19.13
2018-04-07T21:18:20.608Z,19.00
2018-04-07T21:20:48.108Z,19.67
2018-04-07T21:23:24.338Z,18.57
2018-04-07T21:25:51.888Z,17.97
2018-04-07T21:28:19.676Z,19.07
2018-04-07T21:30:47.267Z,17.87
2018-04-07T21:33:24.976Z,18.73
2018-04-07T21:35:55.743Z,17.37
2018-04-07T21:38:23.356Z,17.97
2018-04-07T21:40:50.950Z,18.10
2018-04-07T21:43:18.538Z,19.00
2018-04-07T21:45:46.192Z,18.77
2018-04-07T21:48:13.731Z,19.63
2018-04-07T21:50:41.229Z,19.43
2018-04-07T21:53:08.758Z,19.93
2018-04-07T21:55:37.662Z,19.50
2018-04-07T21:58:06.317Z,19.50
2018-04-07T22:00:33.811Z,19.97
2018-04-07T22:03:09.448Z,20.33
2018-04-07T22:05:36.923Z,19.13
2018-04-07T22:08:04.395Z,18.57
2018-04-07T22:10:31.886Z,19.90
2018-04-07T22:12:59.395Z,18.93
2018-04-07T22:15:26.927Z,18.90
2018-04-07T22:17:54.437Z,19.23
2018-04-07T22:20:21.917Z,19.20
2018-04-07T22:22:49.394Z,17.97
2018-04-07T22:25:16.879Z,18.57
2018-04-07T22:27:44.384Z,18.17
2018-04-07T22:30:11.919Z,19.17
2018-04-07T22:32:39.421Z,18.77
2018-04-07T22:35:06.944Z,18.27
2018-04-07T22:37:34.462Z,17.37
2018-04-07T22:40:01.971Z,18.73
2018-04-07T22:42:29.467Z,18.30
2018-04-07T22:44:56.979Z,17.80
2018-04-07T22:47:24.494Z,16.57
2018-04-07T22:49:51.990Z,16.90
2018-04-07T22:52:19.500Z,17.90
2018-04-07T22:54:46.993Z,16.77
2018-04-07T22:57:14.485Z,17.50
2018-04-07T22:59:42.003Z,17.60
2018-04-07T23:02:09.544Z,17.07
2018-04-07T23:04:37.061Z,17.13
2018-04-07T23:07:04.541Z,18.27
2018-04-07T23:09:32.054Z,17.80
2018-04-07T23:11:59.567Z,17.30
2018-04-07T23:14:27.169Z,16.97
2018-04-07T23:16:54.674Z,17.00
2018-04-07T23:19:22.162Z,18.13
2018-04-07T23:21:49.697Z,17.30
2018-04-07T23:24:17.213Z,16.63
2018-04-07T23:26:44.744Z,16.70
2018-04-07T23:29:12.238Z,16.77
2018-04-07T23:31:40.213Z,15.87
2018-04-07T23:34:07.724Z,15.87
2018-04-07T23:36:35.228Z,17.10
2018-04-07T23:39:02.734Z,16.97
2018-04-07T23:41:30.275Z,16.63
2018-04-07T23:43:57.797Z,16.93
2018-04-07T23:46:25.291Z,17.27
2018-04-07T23:48:52.812Z,15.73
2018-04-07T23:51:20.296Z,17.50
2018-04-07T23:53:47.798Z,16.80
2018-04-07T23:56:15.681Z,17.73
2018-04-07T23:58:43.190Z,16.30
